Time;durP1;ratioP1;P1;durP2;ratioP2;P2;SDS_P1;SDS_P2;PMS_P1;PMS_P2;Temp;Humidity;BMP_temperature;BMP_pressure;BME280_temperature;BME280_humidity;BME280_pressure;Samples;Min_cycle;Max_cycle;Signal;HPM_P1;HPM_P2
2022/01/06 00:00:29;;;;;;;7.53;1.70;;;3.60;99.90;;;;;;4972331;28;20240;-94
2022/01/06 00:02:56;;;;;;;9.33;1.40;;;3.50;99.90;;;;;;4956973;29;20185;-93
2022/01/06 00:05:23;;;;;;;9.20;1.47;;;3.50;99.90;;;;;;4956938;28;20184;-93
2022/01/06 00:07:49;;;;;;;4.80;1.60;;;3.50;99.90;;;;;;4972377;28;20287;-94
2022/01/06 00:10:15;;;;;;;6.20;1.60;;;3.40;99.90;;;;;;4975676;28;20271;-93
2022/01/06 00:13:04;;;;;;;8.80;1.83;;;3.50;99.90;;;;;;4976031;28;20275;-92
2022/01/06 00:25:47;;;;;;;11.57;1.43;;;3.50;99.90;;;;;;4976865;28;20192;-94
2022/01/06 00:28:13;;;;;;;8.20;2.00;;;3.50;99.90;;;;;;4975662;28;20240;-94
2022/01/06 00:30:39;;;;;;;8.43;1.83;;;3.50;99.90;;;;;;4975011;28;20208;-93
2022/01/06 00:33:04;;;;;;;4.20;1.33;;;3.60;99.90;;;;;;4975171;28;20212;-93
2022/01/06 00:35:30;;;;;;;7.30;1.57;;;3.50;99.90;;;;;;4974664;28;20181;-94
2022/01/06 00:37:56;;;;;;;7.53;1.50;;;3.50;99.90;;;;;;4971799;28;20190;-93
2022/01/06 00:40:22;;;;;;;2.73;1.00;;;3.50;99.90;;;;;;4975822;28;20202;-93
2022/01/06 00:42:47;;;;;;;8.40;1.30;;;3.50;99.90;;;;;;4975774;28;20188;-94
2022/01/06 00:45:13;;;;;;;4.43;1.03;;;3.50;99.90;;;;;;4975582;28;20196;-93
2022/01/06 00:47:39;;;;;;;3.70;1.37;;;3.40;99.90;;;;;;4974755;28;20557;-93
2022/01/06 00:50:05;;;;;;;3.93;1.50;;;3.50;99.90;;;;;;4975146;28;20188;-93
2022/01/06 00:52:31;;;;;;;4.20;0.77;;;3.40;99.90;;;;;;4974826;28;20247;-94
2022/01/06 00:54:57;;;;;;;2.33;0.77;;;3.40;99.90;;;;;;4975273;28;20180;-93
2022/01/06 00:57:23;;;;;;;3.23;0.90;;;3.30;99.90;;;;;;5384191;23;20232;-92
2022/01/06 00:59:49;;;;;;;1.93;0.90;;;3.20;99.90;;;;;;4994315;28;20178;-91
2022/01/06 01:02:14;;;;;;;4.73;0.97;;;3.10;99.90;;;;;;4994118;28;20267;-92
2022/01/06 01:04:40;;;;;;;1.77;0.83;;;3.10;99.90;;;;;;4994353;28;20183;-92
2022/01/06 01:07:06;;;;;;;4.67;1.47;;;3.00;99.90;;;;;;4994134;28;20199;-92
2022/01/06 01:09:32;;;;;;;5.53;1.40;;;2.90;99.90;;;;;;4994561;28;20633;-94
2022/01/06 01:12:02;;;;;;;3.73;1.10;;;2.80;99.90;;;;;;4994425;28;20212;-93
2022/01/06 01:14:32;;;;;;;7.17;1.20;;;2.80;99.90;;;;;;4994117;28;20214;-93
2022/01/06 01:17:01;;;;;;;4.40;1.07;;;2.80;99.90;;;;;;4994426;28;20269;-92
2022/01/06 01:19:29;;;;;;;4.53;1.20;;;2.70;99.90;;;;;;4994437;28;20206;-94
2022/01/06 01:21:55;;;;;;;5.30;1.10;;;2.70;99.90;;;;;;4993842;28;20171;-93
2022/01/06 01:24:21;;;;;;;3.43;0.90;;;2.60;99.90;;;;;;4994287;28;20172;-92
2022/01/06 01:26:47;;;;;;;7.77;1.20;;;2.70;99.90;;;;;;4994020;28;20303;-95
2022/01/06 01:29:16;;;;;;;2.20;0.90;;;2.80;99.90;;;;;;4994366;28;20172;-91
2022/01/06 01:31:48;;;;;;;2.40;0.70;;;2.70;99.90;;;;;;4994191;28;20168;-93
2022/01/06 01:34:20;;;;;;;3.13;0.93;;;2.60;99.90;;;;;;4994204;28;20531;-92
2022/01/06 01:36:45;;;;;;;7.00;1.10;;;2.60;99.90;;;;;;4994036;28;20284;-92
2022/01/06 01:39:11;;;;;;;3.00;1.03;;;2.60;99.90;;;;;;4993960;28;20714;-94
2022/01/06 01:41:37;;;;;;;3.23;0.80;;;2.60;99.90;;;;;;4996206;28;20168;-93
2022/01/06 01:44:11;;;;;;;4.90;1.23;;;2.60;99.90;;;;;;4997752;28;20616;-92
2022/01/06 01:46:43;;;;;;;3.63;1.07;;;2.60;99.90;;;;;;4997598;28;20290;-94
2022/01/06 01:51:38;;;;;;;5.63;0.90;;;2.40;99.90;;;;;;4998837;28;20156;-93
2022/01/06 01:54:04;;;;;;;5.10;1.10;;;2.40;99.90;;;;;;4998292;28;20164;-92
2022/01/06 01:56:30;;;;;;;2.80;0.73;;;2.40;99.90;;;;;;4997337;28;20196;-93
2022/01/06 01:58:56;;;;;;;3.07;0.80;;;2.30;99.90;;;;;;4997641;28;20176;-92
2022/01/06 02:01:22;;;;;;;4.23;0.93;;;2.30;99.90;;;;;;4997311;28;20176;-91
2022/01/06 02:03:47;;;;;;;3.97;0.73;;;2.30;99.90;;;;;;4997063;28;20662;-92
2022/01/06 02:06:13;;;;;;;3.97;1.37;;;2.20;99.90;;;;;;4997112;28;20174;-92
2022/01/06 02:08:39;;;;;;;3.73;1.00;;;2.20;99.90;;;;;;4997173;28;20171;-94
2022/01/06 02:11:05;;;;;;;2.97;0.83;;;2.20;99.90;;;;;;4997524;28;20557;-92
2022/01/06 02:13:31;;;;;;;3.17;0.97;;;2.20;99.90;;;;;;4997123;28;20250;-92
2022/01/06 02:16:00;;;;;;;4.93;1.00;;;2.10;99.90;;;;;;4997688;28;20261;-93
2022/01/06 02:18:28;;;;;;;3.53;0.77;;;2.10;99.90;;;;;;4997726;28;20207;-92
2022/01/06 02:20:56;;;;;;;2.23;0.60;;;2.10;99.90;;;;;;4997761;28;20688;-90
2022/01/06 02:23:23;;;;;;;2.47;0.80;;;2.00;99.90;;;;;;5000970;28;20249;-92
2022/01/06 02:25:49;;;;;;;5.13;1.03;;;2.00;99.90;;;;;;4997041;28;20178;-92
2022/01/06 02:28:22;;;;;;;3.10;0.80;;;1.90;99.90;;;;;;4996672;28;20235;-93
2022/01/06 02:30:58;;;;;;;5.17;2.40;;;1.90;99.90;;;;;;4996644;28;20173;-92
2022/01/06 02:33:27;;;;;;;4.33;1.00;;;1.90;99.90;;;;;;4996889;28;20231;-91
2022/01/06 02:35:54;;;;;;;2.83;0.60;;;1.80;99.90;;;;;;4996822;28;20255;-92
2022/01/06 02:38:21;;;;;;;9.03;1.23;;;1.80;99.90;;;;;;4977328;28;20199;-93
2022/01/06 02:40:48;;;;;;;4.53;0.87;;;1.70;99.90;;;;;;4977487;28;20212;-92
2022/01/06 02:43:24;;;;;;;2.97;0.90;;;1.70;99.90;;;;;;4977244;28;20177;-93
2022/01/06 02:45:52;;;;;;;4.07;0.97;;;1.60;99.90;;;;;;4977414;28;20639;-92
2022/01/06 02:48:19;;;;;;;3.20;0.60;;;1.60;99.90;;;;;;4987156;28;20205;-92
2022/01/06 02:50:47;;;;;;;5.50;1.10;;;1.50;99.90;;;;;;4996264;28;20190;-92
2022/01/06 02:53:15;;;;;;;5.37;1.20;;;1.40;99.90;;;;;;4995353;28;20675;-93
2022/01/06 02:55:52;;;;;;;5.57;0.83;;;1.40;99.90;;;;;;4996169;28;20219;-93
2022/01/06 02:58:18;;;;;;;6.07;1.03;;;1.30;99.90;;;;;;4993636;28;20226;-91
2022/01/06 03:00:45;;;;;;;3.90;1.03;;;1.30;99.90;;;;;;4996558;28;20524;-92
2022/01/06 03:03:28;;;;;;;3.80;0.77;;;1.30;99.90;;;;;;4996274;28;20207;-92
2022/01/06 03:05:53;;;;;;;8.97;1.33;;;1.30;99.90;;;;;;4996510;28;20241;-93
2022/01/06 03:08:23;;;;;;;4.37;1.13;;;1.30;99.90;;;;;;4995946;28;20671;-93
2022/01/06 03:11:03;;;;;;;2.50;0.70;;;1.30;99.90;;;;;;4997277;28;20181;-91
2022/01/06 03:13:29;;;;;;;5.47;1.10;;;1.20;99.90;;;;;;4995500;28;20294;-93
2022/01/06 03:15:56;;;;;;;1.73;0.93;;;1.20;99.90;;;;;;4995834;28;20196;-92
2022/01/06 03:18:21;;;;;;;5.87;1.40;;;1.10;99.90;;;;;;4995909;28;20196;-93
2022/01/06 03:20:47;;;;;;;5.47;1.40;;;1.10;99.90;;;;;;4995993;28;20228;-92
2022/01/06 03:23:13;;;;;;;5.73;2.00;;;1.00;99.90;;;;;;4995846;28;20183;-93
2022/01/06 03:25:39;;;;;;;5.40;1.10;;;1.00;99.90;;;;;;4995671;28;20655;-91
2022/01/06 03:28:04;;;;;;;3.70;1.13;;;0.90;99.90;;;;;;4995533;28;20687;-92
2022/01/06 03:30:30;;;;;;;4.27;1.20;;;0.90;99.90;;;;;;4995647;28;20224;-91
2022/01/06 03:32:57;;;;;;;4.20;1.50;;;0.90;99.90;;;;;;4995768;28;20199;-95
2022/01/06 03:35:25;;;;;;;3.47;1.47;;;0.80;99.90;;;;;;4995773;28;20172;-92
2022/01/06 03:37:51;;;;;;;5.33;1.40;;;0.90;99.90;;;;;;4995719;28;20201;-91
2022/01/06 03:40:17;;;;;;;6.97;1.80;;;0.80;99.90;;;;;;4995633;28;20658;-92
2022/01/06 03:42:43;;;;;;;6.13;1.60;;;0.80;99.90;;;;;;4995415;28;20174;-91
2022/01/06 03:45:13;;;;;;;3.47;1.30;;;0.80;99.90;;;;;;4995440;28;20178;-91
2022/01/06 03:47:40;;;;;;;6.03;1.37;;;0.80;99.90;;;;;;4995622;28;20199;-92
2022/01/06 03:50:07;;;;;;;5.50;1.43;;;0.80;99.90;;;;;;4995687;28;20247;-91
2022/01/06 03:52:33;;;;;;;3.80;1.17;;;0.70;99.90;;;;;;4995776;28;20238;-92
2022/01/06 03:54:59;;;;;;;1.80;0.77;;;0.70;99.90;;;;;;4995409;28;20168;-92
2022/01/06 03:57:25;;;;;;;4.80;1.10;;;0.70;99.90;;;;;;4995012;28;20321;-93
2022/01/06 03:59:51;;;;;;;2.97;0.97;;;0.70;99.90;;;;;;4995265;28;20196;-92
2022/01/06 04:02:17;;;;;;;2.03;1.00;;;0.70;99.90;;;;;;4995131;28;20208;-93
2022/01/06 04:04:42;;;;;;;3.23;0.90;;;0.70;99.90;;;;;;4994971;28;20271;-92
2022/01/06 04:07:08;;;;;;;3.70;1.00;;;0.70;99.90;;;;;;4995227;28;20213;-92
2022/01/06 04:09:36;;;;;;;3.67;0.70;;;0.70;99.90;;;;;;4994933;28;20197;-93
2022/01/06 04:12:02;;;;;;;5.17;0.80;;;0.70;99.90;;;;;;4994700;28;20214;-92
2022/01/06 04:14:28;;;;;;;3.87;0.83;;;0.70;99.90;;;;;;4994999;28;20168;-91
2022/01/06 04:16:58;;;;;;;3.87;1.13;;;0.60;99.90;;;;;;4994984;28;20257;-92
2022/01/06 04:19:25;;;;;;;3.47;0.90;;;0.60;99.90;;;;;;4994849;28;20218;-92
2022/01/06 04:21:51;;;;;;;2.80;0.90;;;0.60;99.90;;;;;;4995335;28;20218;-93
2022/01/06 04:24:17;;;;;;;3.30;1.20;;;0.60;99.90;;;;;;4994925;28;20179;-92
2022/01/06 04:26:43;;;;;;;4.33;0.77;;;0.60;99.90;;;;;;4994578;28;20207;-93
2022/01/06 04:29:08;;;;;;;3.90;1.07;;;0.60;99.90;;;;;;4994714;28;20175;-92
2022/01/06 04:31:34;;;;;;;10.53;1.20;;;0.60;99.90;;;;;;4994583;28;20172;-93
2022/01/06 04:34:00;;;;;;;2.73;0.77;;;0.60;99.90;;;;;;4994777;28;20206;-94
2022/01/06 04:36:26;;;;;;;4.60;0.80;;;0.60;99.90;;;;;;4994658;28;20267;-93
2022/01/06 04:38:51;;;;;;;7.17;1.33;;;0.60;99.90;;;;;;4994624;28;20171;-93
2022/01/06 04:41:17;;;;;;;3.43;0.90;;;0.60;99.90;;;;;;4995175;28;20179;-93
2022/01/06 04:43:45;;;;;;;4.37;1.07;;;0.50;99.90;;;;;;4994559;28;20179;-92
2022/01/06 04:46:11;;;;;;;4.93;0.97;;;0.60;99.90;;;;;;4994372;28;20174;-93
2022/01/06 04:48:37;;;;;;;2.90;0.97;;;0.50;99.90;;;;;;4994667;28;20179;-94
2022/01/06 04:51:03;;;;;;;6.23;1.13;;;0.50;99.90;;;;;;4994521;28;20172;-92
2022/01/06 04:53:30;;;;;;;3.07;0.90;;;0.50;99.90;;;;;;4994314;28;20203;-92
2022/01/06 04:55:58;;;;;;;4.03;1.13;;;0.50;99.90;;;;;;4994170;28;20201;-93
2022/01/06 04:58:23;;;;;;;3.57;0.97;;;0.50;99.90;;;;;;4994192;28;20295;-92
2022/01/06 05:00:49;;;;;;;2.07;0.77;;;0.50;99.90;;;;;;4994623;28;20211;-92
2022/01/06 05:03:15;;;;;;;3.40;0.90;;;0.40;99.90;;;;;;4994275;28;20176;-93
2022/01/06 05:05:41;;;;;;;6.93;1.00;;;0.50;99.90;;;;;;4994390;28;20211;-92
2022/01/06 05:08:06;;;;;;;2.93;0.83;;;0.40;99.90;;;;;;5005347;28;20202;-92
2022/01/06 05:10:32;;;;;;;4.67;1.00;;;0.40;99.90;;;;;;5005653;28;20198;-93
2022/01/06 05:12:58;;;;;;;3.73;1.00;;;0.40;99.90;;;;;;5005650;28;20203;-89
2022/01/06 05:15:23;;;;;;;4.00;1.10;;;0.40;99.90;;;;;;5004952;28;20182;-92
2022/01/06 05:17:49;;;;;;;3.30;1.00;;;0.50;99.90;;;;;;4995008;28;20223;-91
2022/01/06 05:20:15;;;;;;;2.23;0.87;;;0.50;99.90;;;;;;4994482;28;20232;-91
2022/01/06 05:22:45;;;;;;;3.93;0.80;;;0.50;99.90;;;;;;4994586;28;20218;-93
2022/01/06 05:25:12;;;;;;;2.67;0.80;;;0.50;99.90;;;;;;4994038;28;20176;-92
2022/01/06 05:27:38;;;;;;;3.47;1.00;;;0.60;99.90;;;;;;4994440;28;20225;-93
2022/01/06 05:30:08;;;;;;;4.83;1.27;;;0.60;99.90;;;;;;4994403;28;20702;-92
2022/01/06 05:32:33;;;;;;;4.53;0.90;;;0.60;99.90;;;;;;4994076;28;20200;-92
2022/01/06 05:34:59;;;;;;;3.47;1.07;;;0.60;99.90;;;;;;4995787;28;20171;-92
2022/01/06 05:37:25;;;;;;;2.83;1.00;;;0.60;99.90;;;;;;4995056;28;20226;-92
2022/01/06 05:39:51;;;;;;;4.93;1.30;;;0.60;99.90;;;;;;4994127;28;20204;-91
2022/01/06 05:42:16;;;;;;;3.90;0.90;;;0.60;99.90;;;;;;4993880;28;20222;-91
2022/01/06 05:44:42;;;;;;;6.50;1.00;;;0.60;99.90;;;;;;4993719;28;20210;-92
2022/01/06 05:47:08;;;;;;;3.60;1.27;;;0.60;99.90;;;;;;4993927;28;20726;-91
2022/01/06 05:49:34;;;;;;;4.20;0.97;;;0.60;99.90;;;;;;4994011;28;20168;-92
2022/01/06 05:52:01;;;;;;;5.47;1.10;;;0.60;99.90;;;;;;4993680;28;20207;-92
2022/01/06 05:54:27;;;;;;;4.40;1.07;;;0.70;99.90;;;;;;4994231;28;20234;-92
2022/01/06 05:56:55;;;;;;;4.27;0.97;;;0.70;99.90;;;;;;4993307;28;20735;-93
2022/01/06 05:59:23;;;;;;;3.43;0.93;;;0.70;99.90;;;;;;4993454;28;20239;-93
2022/01/06 06:01:49;;;;;;;3.20;0.90;;;0.70;99.90;;;;;;4993606;28;20173;-93
2022/01/06 06:04:14;;;;;;;4.13;0.93;;;0.70;99.90;;;;;;4993418;28;20180;-91
2022/01/06 06:06:40;;;;;;;4.60;0.87;;;0.70;99.90;;;;;;4993679;28;20204;-92
2022/01/06 06:09:06;;;;;;;4.57;1.10;;;0.70;99.90;;;;;;4993445;28;20164;-93
2022/01/06 06:11:32;;;;;;;3.20;1.20;;;0.70;99.90;;;;;;4993324;28;20167;-92
2022/01/06 06:13:58;;;;;;;3.90;1.07;;;0.70;99.90;;;;;;4993222;28;20294;-91
2022/01/06 06:16:25;;;;;;;4.43;0.93;;;0.70;99.90;;;;;;4993581;28;20171;-91
2022/01/06 06:18:51;;;;;;;3.50;1.13;;;0.70;99.90;;;;;;4993266;28;20218;-93
2022/01/06 06:21:17;;;;;;;4.03;1.13;;;0.60;99.90;;;;;;4993579;28;20199;-90
2022/01/06 06:23:42;;;;;;;6.37;1.10;;;0.70;99.90;;;;;;4993504;28;20176;-92
2022/01/06 06:26:11;;;;;;;2.00;0.87;;;0.70;99.90;;;;;;4993627;28;20258;-93
2022/01/06 06:28:37;;;;;;;5.70;1.20;;;0.70;99.90;;;;;;4995821;28;20172;-92
2022/01/06 06:31:02;;;;;;;2.77;1.00;;;0.60;99.90;;;;;;4996680;28;20236;-92
2022/01/06 06:33:28;;;;;;;3.53;1.00;;;0.60;99.90;;;;;;4997362;28;20202;-92
2022/01/06 06:35:54;;;;;;;5.13;1.37;;;0.60;99.90;;;;;;4997937;28;20167;-93
2022/01/06 06:38:20;;;;;;;2.47;0.83;;;0.60;99.90;;;;;;4996590;28;20195;-92
2022/01/06 06:40:46;;;;;;;3.20;1.20;;;0.60;99.90;;;;;;4996777;28;20551;-92
2022/01/06 06:43:13;;;;;;;4.73;1.17;;;0.60;99.90;;;;;;4996565;28;20538;-92
2022/01/06 06:45:39;;;;;;;5.17;1.40;;;0.60;99.90;;;;;;4996388;28;20215;-91
2022/01/06 06:48:05;;;;;;;3.63;1.10;;;0.60;99.90;;;;;;4995809;28;20687;-91
2022/01/06 06:50:33;;;;;;;3.23;1.20;;;0.60;99.90;;;;;;4995902;28;20188;-90
2022/01/06 06:53:02;;;;;;;3.83;1.30;;;0.60;99.90;;;;;;4996353;28;20203;-90
2022/01/06 06:55:30;;;;;;;6.97;1.40;;;0.60;99.90;;;;;;4996572;28;20191;-90
2022/01/06 06:57:55;;;;;;;4.43;1.13;;;0.60;99.90;;;;;;4978681;28;20229;-93
2022/01/06 07:00:21;;;;;;;3.60;1.33;;;0.60;99.90;;;;;;4985505;28;20698;-89
2022/01/06 07:02:47;;;;;;;4.50;1.40;;;0.60;99.90;;;;;;4995870;28;20259;-90
2022/01/06 07:05:16;;;;;;;6.70;1.90;;;0.60;99.90;;;;;;4994347;28;20191;-91
2022/01/06 07:07:43;;;;;;;7.90;1.23;;;0.60;99.90;;;;;;4995904;28;20204;-92
2022/01/06 07:10:09;;;;;;;4.73;1.30;;;0.60;99.90;;;;;;4995518;28;20655;-92
2022/01/06 07:12:39;;;;;;;5.67;1.40;;;0.70;99.90;;;;;;4990906;28;20293;-91
2022/01/06 07:15:23;;;;;;;5.23;1.30;;;0.60;99.90;;;;;;4977695;28;20179;-92
2022/01/06 07:17:48;;;;;;;6.57;1.40;;;0.60;99.90;;;;;;4976467;28;20287;-91
2022/01/06 07:20:17;;;;;;;6.60;1.40;;;0.60;99.90;;;;;;4987039;28;20264;-89
2022/01/06 07:22:43;;;;;;;7.50;1.47;;;0.70;99.90;;;;;;4995899;28;20168;-91
2022/01/06 07:25:09;;;;;;;6.40;1.67;;;0.70;99.90;;;;;;4995725;28;20263;-91
2022/01/06 07:27:35;;;;;;;3.43;1.37;;;0.70;99.90;;;;;;4995622;28;20207;-90
2022/01/06 07:30:01;;;;;;;4.33;1.60;;;0.70;99.90;;;;;;4995408;28;20179;-90
2022/01/06 07:32:26;;;;;;;4.70;1.20;;;0.70;99.90;;;;;;4995461;28;20218;-92
2022/01/06 07:34:52;;;;;;;6.30;1.60;;;0.80;99.90;;;;;;4995423;28;20194;-91
2022/01/06 07:37:18;;;;;;;5.80;1.33;;;0.70;99.90;;;;;;4994750;28;20526;-91
2022/01/06 07:39:44;;;;;;;10.10;1.83;;;0.70;99.90;;;;;;4995009;28;20168;-91
2022/01/06 07:42:11;;;;;;;4.83;1.50;;;0.70;99.90;;;;;;4994736;28;20191;-90
2022/01/06 07:44:37;;;;;;;6.20;1.70;;;0.70;99.90;;;;;;4994825;28;20181;-91
2022/01/06 07:47:03;;;;;;;5.93;1.90;;;0.70;99.90;;;;;;4995974;28;20200;-91
2022/01/06 07:49:29;;;;;;;8.70;2.40;;;0.70;99.90;;;;;;4995184;28;20219;-91
2022/01/06 07:51:55;;;;;;;8.67;2.00;;;0.70;99.90;;;;;;4995474;28;20234;-90
2022/01/06 07:54:23;;;;;;;7.77;1.60;;;0.70;99.90;;;;;;4997395;28;20199;-91
2022/01/06 07:56:52;;;;;;;4.20;1.40;;;0.60;99.90;;;;;;4996894;28;20218;-91
2022/01/06 07:59:22;;;;;;;5.87;1.53;;;0.60;99.90;;;;;;4995973;28;20221;-90
2022/01/06 08:01:48;;;;;;;6.43;1.90;;;0.70;99.90;;;;;;4990725;28;20647;-91
2022/01/06 08:04:38;;;;;;;7.40;1.83;;;0.70;99.90;;;;;;4976939;28;20266;-90
2022/01/06 08:07:15;;;;;;;5.87;1.90;;;0.70;99.90;;;;;;4980427;28;20203;-90
2022/01/06 08:10:01;;;;;;;4.33;1.93;;;0.70;99.90;;;;;;4984626;28;20651;-92
2022/01/06 08:12:26;;;;;;;6.23;1.87;;;0.60;99.90;;;;;;4997072;28;20202;-93
2022/01/06 08:15:14;;;;;;;9.47;2.10;;;0.60;99.90;;;;;;4997718;28;20170;-92
2022/01/06 08:17:52;;;;;;;4.10;2.20;;;0.60;99.90;;;;;;4997230;28;20252;-92
2022/01/06 08:20:19;;;;;;;6.93;2.10;;;0.60;99.90;;;;;;4996560;28;20172;-90
2022/01/06 08:23:16;;;;;;;5.53;1.90;;;0.60;99.90;;;;;;4997512;28;20172;-93
2022/01/06 08:25:58;;;;;;;7.63;2.23;;;0.60;99.90;;;;;;4996707;28;20207;-92
2022/01/06 08:28:25;;;;;;;5.30;2.00;;;0.60;99.90;;;;;;4995990;28;20301;-91
2022/01/06 08:30:58;;;;;;;6.20;2.40;;;0.60;99.90;;;;;;5006108;28;20180;-92
2022/01/06 08:33:24;;;;;;;5.57;2.10;;;0.60;99.90;;;;;;5010692;28;20620;-92
2022/01/06 08:35:49;;;;;;;6.07;2.30;;;0.70;99.90;;;;;;4994876;28;20208;-91
2022/01/06 08:38:15;;;;;;;9.47;2.50;;;0.70;99.90;;;;;;4989554;28;20214;-91
2022/01/06 08:40:41;;;;;;;8.37;2.13;;;0.70;99.90;;;;;;4991699;28;20176;-94
2022/01/06 08:43:07;;;;;;;6.57;1.97;;;0.70;99.90;;;;;;4984293;28;20179;-92
2022/01/06 08:45:33;;;;;;;12.07;2.30;;;0.80;99.90;;;;;;4993583;28;20176;-93
2022/01/06 08:48:01;;;;;;;7.07;2.30;;;0.80;99.90;;;;;;4993070;28;20208;-91
2022/01/06 08:50:29;;;;;;;8.30;2.63;;;0.90;99.90;;;;;;4993193;28;20263;-93
2022/01/06 08:52:57;;;;;;;8.20;2.37;;;1.00;99.90;;;;;;4994886;28;20208;-92
2022/01/06 08:55:26;;;;;;;4.33;2.30;;;1.10;99.90;;;;;;4993263;28;20184;-92
2022/01/06 08:58:02;;;;;;;9.07;2.73;;;1.10;99.90;;;;;;4993122;28;20711;-91
2022/01/06 09:00:37;;;;;;;7.10;2.80;;;1.20;99.90;;;;;;4994798;28;20668;-93
2022/01/06 09:03:28;;;;;;;7.23;2.47;;;1.20;99.90;;;;;;4994613;28;20306;-92
2022/01/06 09:05:54;;;;;;;6.00;2.70;;;1.30;99.90;;;;;;4994905;28;20175;-91
2022/01/06 09:08:55;;;;;;;9.53;2.77;;;1.20;99.90;;;;;;4995525;28;20210;-91
2022/01/06 09:11:36;;;;;;;9.17;2.93;;;1.30;99.90;;;;;;4994853;28;20178;-92
2022/01/06 09:14:27;;;;;;;11.40;3.20;;;1.30;99.90;;;;;;4994539;28;20237;-94
2022/01/06 09:17:08;;;;;;;15.20;3.17;;;1.30;99.90;;;;;;5003756;28;20210;-93
2022/01/06 09:19:34;;;;;;;7.40;3.03;;;1.30;99.90;;;;;;5014595;28;20179;-93
2022/01/06 09:22:10;;;;;;;10.57;3.20;;;1.20;99.90;;;;;;5014072;28;20175;-91
2022/01/06 09:24:36;;;;;;;12.07;3.00;;;1.30;99.90;;;;;;5014883;28;20179;-92
2022/01/06 09:27:02;;;;;;;10.10;2.97;;;1.30;99.90;;;;;;5014253;28;20205;-93
2022/01/06 09:29:35;;;;;;;8.50;2.73;;;1.30;99.90;;;;;;5014274;28;20183;-91
2022/01/06 09:32:17;;;;;;;9.30;2.73;;;1.30;99.90;;;;;;5014281;28;20202;-91
2022/01/06 09:34:54;;;;;;;8.30;2.67;;;1.40;99.90;;;;;;5014737;28;20178;-91
2022/01/06 09:37:32;;;;;;;9.30;2.70;;;1.50;99.90;;;;;;5001068;28;20203;-93
2022/01/06 09:40:13;;;;;;;8.30;2.87;;;1.50;99.90;;;;;;4994132;28;20167;-93
2022/01/06 09:42:46;;;;;;;7.50;2.47;;;1.60;99.90;;;;;;4995195;28;20182;-93
2022/01/06 09:45:32;;;;;;;6.43;2.53;;;1.70;99.90;;;;;;4994037;28;20172;-92
2022/01/06 09:48:42;;;;;;;12.47;2.90;;;1.80;99.90;;;;;;4994114;28;20204;-93
2022/01/06 09:51:16;;;;;;;12.17;2.60;;;1.70;99.90;;;;;;4994850;28;20195;-92
2022/01/06 09:53:42;;;;;;;7.13;2.23;;;1.70;99.90;;;;;;4995147;28;20200;-92
2022/01/06 09:57:04;;;;;;;6.93;2.70;;;1.70;99.90;;;;;;4994061;28;20234;-93
2022/01/06 09:59:45;;;;;;;6.53;2.30;;;1.70;99.90;;;;;;4994415;28;20590;-92
2022/01/06 10:02:19;;;;;;;4.53;2.30;;;1.80;99.90;;;;;;4996387;28;20280;-92
2022/01/06 10:05:22;;;;;;;7.60;2.00;;;1.80;99.90;;;;;;4998608;28;20179;-93
2022/01/06 10:07:57;;;;;;;9.07;2.50;;;1.80;99.90;;;;;;4998020;28;20226;-92
2022/01/06 10:10:31;;;;;;;7.93;2.40;;;1.90;99.90;;;;;;4997978;28;20179;-93
2022/01/06 10:13:05;;;;;;;8.27;2.47;;;1.90;99.90;;;;;;4998039;28;20206;-93
2022/01/06 10:15:39;;;;;;;10.27;2.87;;;2.00;99.90;;;;;;4998815;28;20190;-93
2022/01/06 10:18:20;;;;;;;8.73;2.50;;;2.00;99.90;;;;;;4997688;28;20207;-94
2022/01/06 10:20:50;;;;;;;7.80;2.77;;;2.00;99.90;;;;;;4997121;28;20172;-92
2022/01/06 10:23:16;;;;;;;10.47;2.67;;;2.10;99.90;;;;;;4997744;28;20234;-92
2022/01/06 10:25:51;;;;;;;7.93;2.20;;;2.10;99.90;;;;;;4997392;28;20203;-94
2022/01/06 10:28:52;;;;;;;6.43;2.30;;;2.10;99.90;;;;;;4997847;28;20211;-93
2022/01/06 10:31:32;;;;;;;10.07;2.27;;;2.10;99.90;;;;;;5001166;28;20183;-93
2022/01/06 10:34:08;;;;;;;7.43;2.73;;;2.20;99.90;;;;;;5008067;28;20195;-92
2022/01/06 10:36:36;;;;;;;7.53;2.10;;;2.20;99.90;;;;;;5007760;28;20206;-93
2022/01/06 10:39:06;;;;;;;8.03;2.40;;;2.30;99.90;;;;;;5008504;28;20168;-92
2022/01/06 10:41:34;;;;;;;8.80;2.60;;;2.40;99.90;;;;;;5000293;28;20259;-93
2022/01/06 10:44:18;;;;;;;8.07;2.63;;;2.50;99.90;;;;;;4997817;28;20176;-93
2022/01/06 10:47:03;;;;;;;7.00;3.10;;;2.50;99.90;;;;;;4997714;28;20199;-92
2022/01/06 10:49:31;;;;;;;6.80;2.40;;;2.50;99.90;;;;;;4997335;28;20172;-93
2022/01/06 10:52:03;;;;;;;8.90;2.77;;;2.50;99.90;;;;;;4997539;28;20172;-92
2022/01/06 10:54:39;;;;;;;8.53;3.10;;;2.60;99.90;;;;;;4997351;28;20180;-92
2022/01/06 10:57:24;;;;;;;9.67;3.33;;;2.60;99.90;;;;;;4996713;28;20751;-91
2022/01/06 10:59:57;;;;;;;11.90;2.87;;;2.60;99.90;;;;;;4997327;28;20230;-92
2022/01/06 11:02:31;;;;;;;8.13;2.90;;;2.70;99.90;;;;;;4998030;28;20176;-92
2022/01/06 11:04:57;;;;;;;10.63;3.10;;;2.80;99.90;;;;;;4997053;28;20168;-92
2022/01/06 11:07:32;;;;;;;6.97;3.20;;;2.90;99.90;;;;;;4996338;28;20554;-93
2022/01/06 11:10:31;;;;;;;7.87;2.87;;;2.90;99.90;;;;;;4997553;28;20186;-92
2022/01/06 11:12:58;;;;;;;6.93;2.60;;;3.00;99.90;;;;;;4996283;28;20210;-91
2022/01/06 11:15:26;;;;;;;6.93;3.57;;;3.10;99.90;;;;;;4996007;28;20178;-93
2022/01/06 11:17:55;;;;;;;8.00;3.10;;;3.00;99.90;;;;;;4996717;28;20200;-93
2022/01/06 11:20:29;;;;;;;9.97;3.37;;;3.00;99.90;;;;;;4997258;28;20172;-93
2022/01/06 11:23:02;;;;;;;5.60;2.70;;;3.00;99.90;;;;;;4996392;28;20182;-93
2022/01/06 11:25:39;;;;;;;5.43;2.73;;;3.10;99.90;;;;;;4996942;28;20194;-92
2022/01/06 11:28:12;;;;;;;8.13;3.33;;;3.10;99.90;;;;;;4996735;28;20203;-93
2022/01/06 11:30:55;;;;;;;9.47;3.10;;;3.10;99.90;;;;;;4996712;28;20180;-93
2022/01/06 11:33:38;;;;;;;6.40;2.90;;;3.30;99.90;;;;;;4996937;28;20199;-93
2022/01/06 11:36:25;;;;;;;8.57;3.13;;;3.40;99.90;;;;;;4996941;28;20682;-93
2022/01/06 11:38:55;;;;;;;9.33;3.17;;;3.60;99.90;;;;;;4996201;28;20168;-92
2022/01/06 11:41:41;;;;;;;9.47;3.17;;;3.60;99.90;;;;;;4995960;28;20687;-94
2022/01/06 11:44:56;;;;;;;11.63;3.27;;;3.70;99.90;;;;;;4996634;28;20172;-94
2022/01/06 11:48:13;;;;;;;15.03;3.57;;;3.70;99.90;;;;;;4996176;28;20254;-92
2022/01/06 11:51:01;;;;;;;8.20;3.33;;;3.60;99.90;;;;;;4991964;28;20187;-93
2022/01/06 11:53:32;;;;;;;9.10;3.20;;;3.50;99.90;;;;;;4995609;28;20216;-93
2022/01/06 11:55:59;;;;;;;9.97;3.70;;;3.60;99.90;;;;;;4996094;28;20172;-91
2022/01/06 11:58:26;;;;;;;6.60;3.10;;;3.60;99.90;;;;;;4996026;28;20227;-92
2022/01/06 12:01:07;;;;;;;10.83;3.20;;;3.70;99.90;;;;;;4996010;28;20267;-93
2022/01/06 12:04:12;;;;;;;12.63;3.80;;;3.60;99.90;;;;;;4996238;28;20180;-92
2022/01/06 12:06:43;;;;;;;8.17;3.10;;;3.60;99.90;;;;;;4996217;28;20290;-93
2022/01/06 12:10:03;;;;;;;7.87;3.23;;;3.50;99.90;;;;;;4995852;28;20198;-93
2022/01/06 12:12:51;;;;;;;12.00;3.20;;;3.60;99.90;;;;;;4994794;28;20204;-92
2022/01/06 12:15:20;;;;;;;9.57;3.37;;;3.60;99.90;;;;;;4995368;28;20180;-93
2022/01/06 12:18:00;;;;;;;17.43;3.90;;;3.60;99.90;;;;;;4996229;28;20719;-93
2022/01/06 12:20:53;;;;;;;10.93;3.57;;;3.60;99.90;;;;;;4995879;28;20180;-94
2022/01/06 12:23:35;;;;;;;12.67;3.60;;;3.60;99.90;;;;;;4995443;28;20656;-93
2022/01/06 12:26:09;;;;;;;14.47;3.80;;;3.60;99.90;;;;;;4995546;28;20183;-93
2022/01/06 12:28:55;;;;;;;11.23;3.20;;;3.70;99.90;;;;;;4995339;28;20182;-93
2022/01/06 12:31:31;;;;;;;13.30;3.30;;;3.70;99.90;;;;;;4999604;28;20180;-92
2022/01/06 12:34:14;;;;;;;9.57;3.47;;;3.70;99.90;;;;;;4998062;28;20195;-93
2022/01/06 12:36:56;;;;;;;8.40;3.13;;;3.70;99.90;;;;;;5000868;28;20693;-92
2022/01/06 12:39:32;;;;;;;8.97;3.40;;;3.80;99.90;;;;;;4996781;28;20183;-93
2022/01/06 12:42:03;;;;;;;10.20;3.50;;;3.80;99.90;;;;;;4996094;28;20172;-94
2022/01/06 12:44:29;;;;;;;9.80;2.67;;;4.00;99.90;;;;;;4995450;28;20202;-92
2022/01/06 12:46:57;;;;;;;13.13;3.37;;;4.00;99.90;;;;;;4994156;28;20191;-94
2022/01/06 12:49:24;;;;;;;10.90;3.00;;;4.00;99.90;;;;;;4995152;28;20180;-93
2022/01/06 12:51:51;;;;;;;7.17;2.90;;;4.10;99.90;;;;;;4995784;28;20168;-93
2022/01/06 12:54:22;;;;;;;9.67;2.70;;;4.20;99.90;;;;;;4978881;28;20223;-92
2022/01/06 12:56:56;;;;;;;9.17;3.00;;;4.30;99.90;;;;;;4995148;28;20204;-94
2022/01/06 12:59:36;;;;;;;9.53;3.27;;;4.50;99.90;;;;;;4996174;28;20259;-93
2022/01/06 13:02:09;;;;;;;9.10;2.40;;;4.40;99.90;;;;;;4994938;28;20180;-93
2022/01/06 13:04:38;;;;;;;12.07;3.33;;;4.40;99.90;;;;;;4994907;28;20168;-94
2022/01/06 13:07:08;;;;;;;7.80;2.63;;;4.20;99.90;;;;;;4996006;28;20203;-94
2022/01/06 13:09:40;;;;;;;12.90;2.70;;;4.20;99.90;;;;;;4994986;28;20199;-94
2022/01/06 13:12:31;;;;;;;10.80;2.83;;;4.20;99.90;;;;;;4995006;28;20172;-93
2022/01/06 13:14:57;;;;;;;10.03;3.70;;;4.20;99.90;;;;;;4996082;28;20187;-93
2022/01/06 13:17:26;;;;;;;8.93;2.40;;;4.30;99.90;;;;;;4993779;28;20257;-94
2022/01/06 13:20:04;;;;;;;11.70;2.90;;;4.40;99.90;;;;;;4994605;28;20263;-93
2022/01/06 13:23:40;;;;;;;11.03;2.23;;;4.40;99.90;;;;;;4996277;28;20179;-94
2022/01/06 13:25:30;;;;;;;10.93;2.47;;;4.40;99.90;;;;;;4996074;28;20559;-94
2022/01/06 13:28:14;;;;;;;10.40;2.93;;;4.40;99.90;;;;;;4994730;28;20222;-93